createdAt,value
2019-01-20T00:01:51.823Z,0.33
2019-01-20T00:04:41.830Z,0.26
2019-01-20T00:07:31.992Z,0.23
2019-01-20T00:10:22.176Z,0.21
2019-01-20T00:13:11.909Z,0.16
2019-01-20T00:16:01.917Z,0.15
2019-01-20T00:18:51.711Z,0.14
2019-01-20T00:21:41.627Z,0.11
2019-01-20T00:24:31.468Z,0.10
2019-01-20T00:27:21.706Z,0.07
2019-01-20T00:30:12.527Z,0.02
2019-01-20T00:33:02.359Z,-0.07
2019-01-20T00:35:52.204Z,-0.11
2019-01-20T00:38:42.227Z,-0.15
2019-01-20T00:41:31.868Z,-0.21
2019-01-20T00:44:21.549Z,-0.25
2019-01-20T00:47:11.779Z,-0.30
2019-01-20T00:50:01.757Z,-0.33
2019-01-20T00:52:51.130Z,-0.39
2019-01-20T00:55:41.360Z,-0.42
2019-01-20T00:58:31.360Z,-0.45
2019-01-20T01:01:21.363Z,-0.54
2019-01-20T01:04:12.302Z,-0.59
2019-01-20T01:07:02.168Z,-0.63
2019-01-20T01:09:52.342Z,-0.68
2019-01-20T01:12:42.771Z,-0.76
2019-01-20T01:15:33.158Z,-0.80
2019-01-20T01:18:23.033Z,-0.88
2019-01-20T01:21:12.372Z,-0.92
2019-01-20T01:24:02.090Z,-1.00
2019-01-20T01:26:52.032Z,-1.07
2019-01-20T01:29:42.030Z,-1.10
2019-01-20T01:32:31.847Z,-1.17
2019-01-20T01:35:21.735Z,-1.25
2019-01-20T01:38:12.052Z,-1.29
2019-01-20T01:41:01.947Z,-1.40
2019-01-20T01:43:53.047Z,-1.47
2019-01-20T01:46:43.468Z,-1.49
2019-01-20T01:49:33.506Z,-1.52
2019-01-20T01:52:23.744Z,-1.57
2019-01-20T01:55:14.179Z,-1.57
2019-01-20T01:58:04.572Z,-1.59
2019-01-20T02:00:54.340Z,-1.61
2019-01-20T02:03:44.257Z,-1.62
2019-01-20T02:06:34.810Z,-1.69
2019-01-20T02:09:24.505Z,-1.71
2019-01-20T02:12:14.723Z,-1.77
2019-01-20T02:15:05.630Z,-1.78
2019-01-20T02:17:55.840Z,-1.81
2019-01-20T02:20:45.736Z,-1.84
2019-01-20T02:23:35.871Z,-1.87
2019-01-20T02:26:25.829Z,-1.93
2019-01-20T02:29:15.688Z,-1.95
2019-01-20T02:32:05.905Z,-1.96
2019-01-20T02:34:55.866Z,-1.99
2019-01-20T02:37:45.893Z,-2.01
2019-01-20T02:40:35.796Z,-2.04
2019-01-20T02:43:25.565Z,-2.04
2019-01-20T02:46:15.407Z,-2.08
2019-01-20T02:49:05.583Z,-2.09
2019-01-20T02:51:55.597Z,-2.14
2019-01-20T02:54:45.610Z,-2.16
2019-01-20T02:57:35.661Z,-2.11
2019-01-20T03:00:26.397Z,-2.15
2019-01-20T03:03:16.330Z,-2.16
2019-01-20T03:06:06.257Z,-2.16
2019-01-20T03:08:56.709Z,-2.16
2019-01-20T03:11:46.517Z,-2.20
2019-01-20T03:14:36.404Z,-2.20
2019-01-20T03:17:26.512Z,-2.23
2019-01-20T03:20:23.179Z,-2.26
2019-01-20T03:23:13.020Z,-2.29
2019-01-20T03:26:03.258Z,-2.33
2019-01-20T03:28:53.485Z,-2.30
2019-01-20T03:31:44.088Z,-2.30
2019-01-20T03:34:33.933Z,-2.31
2019-01-20T03:37:24.062Z,-2.29
2019-01-20T03:40:16.117Z,-2.27
2019-01-20T03:43:06.207Z,-2.28
2019-01-20T03:45:56.321Z,-2.30
2019-01-20T03:48:46.282Z,-2.31
2019-01-20T03:51:37.482Z,-2.33
2019-01-20T03:54:27.384Z,-2.33
2019-01-20T03:57:17.928Z,-2.38
2019-01-20T04:00:13.565Z,-2.40
2019-01-20T04:03:04.047Z,-2.45
2019-01-20T04:05:53.590Z,-2.44
2019-01-20T04:08:44.116Z,-2.45
2019-01-20T04:11:33.999Z,-2.47
2019-01-20T04:14:24.052Z,-2.51
2019-01-20T04:17:13.752Z,-2.54
2019-01-20T04:20:04.028Z,-2.56
2019-01-20T04:22:54.132Z,-2.60
2019-01-20T04:25:44.031Z,-2.64
2019-01-20T04:28:34.209Z,-2.64
2019-01-20T04:31:24.297Z,-2.66
2019-01-20T04:34:14.607Z,-2.67
2019-01-20T04:37:04.690Z,-2.69
2019-01-20T04:39:54.453Z,-2.69
2019-01-20T04:42:44.364Z,-2.70
2019-01-20T04:45:34.229Z,-2.73
2019-01-20T04:48:23.836Z,-2.75
2019-01-20T04:51:15.032Z,-2.79
2019-01-20T04:54:05.864Z,-2.79
2019-01-20T04:56:55.919Z,-2.81
2019-01-20T04:59:46.184Z,-2.82
2019-01-20T05:02:36.167Z,-2.84
2019-01-20T05:05:27.376Z,-2.84
2019-01-20T05:08:16.986Z,-2.86
2019-01-20T05:11:06.848Z,-2.89
2019-01-20T05:13:57.205Z,-2.91
2019-01-20T05:16:47.313Z,-2.93
2019-01-20T05:19:37.075Z,-2.95
2019-01-20T05:22:27.044Z,-2.96
2019-01-20T05:25:17.519Z,-2.97
2019-01-20T05:28:07.534Z,-2.97
2019-01-20T05:30:57.310Z,-2.99
2019-01-20T05:33:46.985Z,-2.99
2019-01-20T05:36:37.353Z,-3.00
2019-01-20T05:39:27.105Z,-2.99
2019-01-20T05:42:16.999Z,-3.00
2019-01-20T05:45:14.813Z,-3.01
2019-01-20T05:48:05.410Z,-3.02
2019-01-20T05:50:55.379Z,-3.03
2019-01-20T05:53:45.339Z,-3.05
2019-01-20T05:56:35.162Z,-3.07
2019-01-20T05:59:25.209Z,-3.08
2019-01-20T06:02:15.151Z,-3.10
2019-01-20T06:05:05.772Z,-3.13
2019-01-20T06:07:55.554Z,-3.12
2019-01-20T06:10:45.549Z,-3.13
2019-01-20T06:13:35.056Z,-3.13
2019-01-20T06:16:25.302Z,-3.16
2019-01-20T06:19:14.823Z,-3.18
2019-01-20T06:22:04.721Z,-3.19
2019-01-20T06:24:54.787Z,-3.22
2019-01-20T06:27:45.164Z,-3.23
2019-01-20T06:30:35.242Z,-3.25
2019-01-20T06:33:24.983Z,-3.25
2019-01-20T06:36:14.839Z,-3.27
2019-01-20T06:39:06.716Z,-3.29
2019-01-20T06:41:56.883Z,-3.30
2019-01-20T06:44:46.832Z,-3.31
2019-01-20T06:47:36.667Z,-3.30
2019-01-20T06:50:26.591Z,-3.31
2019-01-20T06:53:16.920Z,-3.32
2019-01-20T06:56:07.001Z,-3.35
2019-01-20T06:58:57.093Z,-3.37
2019-01-20T07:01:47.080Z,-3.37
2019-01-20T07:04:36.535Z,-3.38
2019-01-20T07:07:26.322Z,-3.37
2019-01-20T07:10:17.683Z,-3.41
2019-01-20T07:13:10.124Z,-3.38
2019-01-20T07:16:00.214Z,-3.35
2019-01-20T07:18:50.250Z,-3.37
2019-01-20T07:21:40.342Z,-3.36
2019-01-20T07:24:30.628Z,-3.36
2019-01-20T07:27:20.548Z,-3.35
2019-01-20T07:30:15.525Z,-3.33
2019-01-20T07:33:05.783Z,-3.32
2019-01-20T07:35:55.532Z,-3.27
2019-01-20T07:38:45.338Z,-3.24
2019-01-20T07:41:35.227Z,-3.20
2019-01-20T07:44:25.279Z,-3.14
2019-01-20T07:47:16.147Z,-3.08
2019-01-20T07:50:13.524Z,-3.04
2019-01-20T07:53:03.557Z,-2.98
2019-01-20T07:55:53.305Z,-2.95
2019-01-20T07:58:43.735Z,-2.87
2019-01-20T08:01:33.527Z,-2.77
2019-01-20T08:04:23.470Z,-2.70
2019-01-20T08:07:13.516Z,-2.54
2019-01-20T08:10:04.587Z,-2.30
2019-01-20T08:12:54.662Z,-1.89
2019-01-20T08:15:43.782Z,-1.50
2019-01-20T08:18:33.462Z,-1.23
2019-01-20T08:21:23.715Z,-1.05
2019-01-20T08:24:13.614Z,-0.87
2019-01-20T08:27:03.379Z,-0.63
2019-01-20T08:29:53.093Z,-0.25
2019-01-20T08:32:43.144Z,0.07
2019-01-20T08:35:33.136Z,0.28
2019-01-20T08:38:22.745Z,0.55
2019-01-20T08:41:12.954Z,0.76
2019-01-20T08:44:04.030Z,0.87
2019-01-20T08:47:38.041Z,0.93
2019-01-20T08:50:28.178Z,1.11
2019-01-20T08:53:18.174Z,1.33
2019-01-20T08:56:08.106Z,1.54
2019-01-20T08:58:57.867Z,1.50
2019-01-20T09:01:48.079Z,1.38
2019-01-20T09:04:38.069Z,1.26
2019-01-20T09:07:28.258Z,1.33
2019-01-20T09:10:25.390Z,1.37
2019-01-20T09:13:15.717Z,1.49
2019-01-20T09:16:05.611Z,1.58
2019-01-20T09:18:55.816Z,1.87
2019-01-20T09:21:45.915Z,2.30
2019-01-20T09:24:35.489Z,2.83
2019-01-20T09:27:25.683Z,3.52
2019-01-20T09:30:19.385Z,3.61
2019-01-20T09:33:09.509Z,3.71
2019-01-20T09:35:59.525Z,4.02
2019-01-20T09:38:49.264Z,4.42
2019-01-20T09:41:39.123Z,4.80
2019-01-20T09:44:29.322Z,4.98
2019-01-20T09:47:18.999Z,4.87
2019-01-20T09:50:09.343Z,5.05
2019-01-20T09:52:59.460Z,5.34
2019-01-20T09:55:49.611Z,5.74
2019-01-20T09:58:39.321Z,6.27
2019-01-20T10:01:29.423Z,6.51
2019-01-20T10:04:19.493Z,6.12
2019-01-20T10:07:09.387Z,6.02
2019-01-20T10:09:59.482Z,5.93
2019-01-20T10:12:49.484Z,5.85
2019-01-20T10:15:38.955Z,5.59
2019-01-20T10:18:29.404Z,5.85
2019-01-20T10:21:19.893Z,6.12
2019-01-20T10:24:09.704Z,6.29
2019-01-20T10:26:59.230Z,6.34
2019-01-20T10:29:49.275Z,6.38
2019-01-20T10:32:39.147Z,6.54
2019-01-20T10:35:33.626Z,6.71
2019-01-20T10:38:23.606Z,6.42
2019-01-20T10:41:13.742Z,6.38
2019-01-20T10:44:03.681Z,6.93
2019-01-20T10:46:53.173Z,7.64
2019-01-20T10:49:43.233Z,8.42
2019-01-20T10:52:33.503Z,9.03
2019-01-20T10:55:22.957Z,9.06
2019-01-20T10:58:12.848Z,9.37
2019-01-20T11:01:02.958Z,9.87
2019-01-20T11:03:52.979Z,10.32
2019-01-20T11:06:44.151Z,11.56
2019-01-20T11:09:34.048Z,12.62
2019-01-20T11:12:23.390Z,13.61
2019-01-20T11:15:13.676Z,14.25
2019-01-20T11:18:03.786Z,14.61
2019-01-20T11:20:54.312Z,14.08
2019-01-20T11:23:44.740Z,14.26
2019-01-20T11:26:34.541Z,14.49
2019-01-20T11:29:23.833Z,14.93
2019-01-20T11:32:13.622Z,15.24
2019-01-20T11:35:04.953Z,14.88
2019-01-20T11:37:54.864Z,13.84
2019-01-20T11:40:44.628Z,14.19
2019-01-20T11:43:34.339Z,13.76
2019-01-20T11:46:24.200Z,14.19
2019-01-20T11:49:13.878Z,13.39
2019-01-20T11:52:03.903Z,12.87
2019-01-20T11:54:54.289Z,13.07
2019-01-20T11:57:44.005Z,13.22
2019-01-20T12:00:36.928Z,12.99
2019-01-20T12:03:26.324Z,13.13
2019-01-20T12:06:16.458Z,13.31
2019-01-20T12:09:09.431Z,13.82
2019-01-20T12:11:58.914Z,13.70
2019-01-20T12:14:49.209Z,12.59
2019-01-20T12:17:39.422Z,11.79
2019-01-20T12:20:29.457Z,10.71
2019-01-20T12:23:20.879Z,9.53
2019-01-20T12:26:11.067Z,6.30
2019-01-20T12:29:01.034Z,8.54
2019-01-20T12:31:51.070Z,7.94
2019-01-20T12:34:41.376Z,7.59
2019-01-20T12:37:30.914Z,7.19
2019-01-20T12:40:23.035Z,6.88
2019-01-20T12:43:12.812Z,6.66
2019-01-20T12:46:02.605Z,6.39
2019-01-20T12:48:52.712Z,6.04
2019-01-20T12:51:42.850Z,5.88
2019-01-20T12:54:32.370Z,5.81
2019-01-20T12:57:22.215Z,5.74
2019-01-20T13:00:16.207Z,5.62
2019-01-20T13:03:06.984Z,5.50
2019-01-20T13:05:57.746Z,5.37
2019-01-20T13:08:48.138Z,5.26
2019-01-20T13:11:37.940Z,5.21
2019-01-20T13:14:28.005Z,5.16
2019-01-20T13:17:17.872Z,5.13
2019-01-20T13:20:12.021Z,5.03
2019-01-20T13:23:01.164Z,4.98
2019-01-20T13:25:51.531Z,4.94
2019-01-20T13:28:42.567Z,4.89
2019-01-20T13:31:32.564Z,4.90
2019-01-20T13:34:22.415Z,4.86
2019-01-20T13:37:12.401Z,4.75
2019-01-20T13:40:03.274Z,4.74
2019-01-20T13:42:53.463Z,4.74
2019-01-20T13:45:42.969Z,4.74
2019-01-20T13:48:32.211Z,4.68
2019-01-20T13:51:22.328Z,4.56
2019-01-20T13:54:12.259Z,4.57
2019-01-20T13:57:02.219Z,4.54
2019-01-20T13:59:53.288Z,4.50
2019-01-20T14:02:42.703Z,4.51
2019-01-20T14:05:32.953Z,4.32
2019-01-20T14:08:22.742Z,4.39
2019-01-20T14:11:12.715Z,4.40
2019-01-20T14:14:02.770Z,4.41
2019-01-20T14:16:53.346Z,4.38
2019-01-20T14:19:43.721Z,4.34
2019-01-20T14:22:33.765Z,4.32
2019-01-20T14:25:25.047Z,4.16
2019-01-20T14:28:14.745Z,4.01
2019-01-20T14:31:04.831Z,4.06
2019-01-20T14:33:55.433Z,4.07
2019-01-20T14:36:45.042Z,4.05
2019-01-20T14:39:34.920Z,4.07
2019-01-20T14:42:25.039Z,4.05
2019-01-20T14:45:16.009Z,4.03
2019-01-20T14:48:06.366Z,3.99
2019-01-20T14:50:56.554Z,3.99
2019-01-20T14:53:47.366Z,3.96
2019-01-20T14:56:38.029Z,3.89
2019-01-20T14:59:28.310Z,3.83
2019-01-20T15:02:18.317Z,3.84
2019-01-20T15:05:08.590Z,3.82
2019-01-20T15:07:58.470Z,3.80
2019-01-20T15:10:48.496Z,3.75
2019-01-20T15:13:38.678Z,3.74
2019-01-20T15:16:28.411Z,3.71
2019-01-20T15:19:18.938Z,3.64
2019-01-20T15:22:08.497Z,3.61
2019-01-20T15:24:58.511Z,3.53
2019-01-20T15:27:48.711Z,3.51
2019-01-20T15:30:39.255Z,3.46
2019-01-20T15:33:29.206Z,3.41
2019-01-20T15:36:19.018Z,3.30
2019-01-20T15:39:10.743Z,3.21
2019-01-20T15:42:00.394Z,3.16
2019-01-20T15:44:50.225Z,3.04
2019-01-20T15:47:40.231Z,2.94
2019-01-20T15:50:32.838Z,2.87
2019-01-20T15:53:24.126Z,2.80
2019-01-20T15:56:13.795Z,2.72
2019-01-20T15:59:03.787Z,2.63
2019-01-20T16:01:53.805Z,2.56
2019-01-20T16:04:43.577Z,2.47
2019-01-20T16:07:33.399Z,2.40
2019-01-20T16:10:25.380Z,2.29
2019-01-20T16:13:15.429Z,2.20
2019-01-20T16:16:05.715Z,2.11
2019-01-20T16:18:55.686Z,2.03
2019-01-20T16:21:45.652Z,2.00
2019-01-20T16:24:36.181Z,1.93
2019-01-20T16:27:26.488Z,1.84
2019-01-20T16:30:20.521Z,1.76
2019-01-20T16:33:10.390Z,1.68
2019-01-20T16:36:00.421Z,1.63
2019-01-20T16:38:50.338Z,1.58
2019-01-20T16:41:40.323Z,1.52
2019-01-20T16:44:30.411Z,1.43
2019-01-20T16:47:20.099Z,1.38
2019-01-20T16:50:14.849Z,1.32
2019-01-20T16:53:05.537Z,1.28
2019-01-20T16:55:55.462Z,1.23
2019-01-20T16:58:45.072Z,1.23
2019-01-20T17:01:35.570Z,1.24
2019-01-20T17:04:25.944Z,1.20
2019-01-20T17:07:15.684Z,1.16
2019-01-20T17:10:09.579Z,1.13
2019-01-20T17:12:59.159Z,1.08
2019-01-20T17:15:49.417Z,1.05
2019-01-20T17:18:38.969Z,1.01
2019-01-20T17:21:28.410Z,1.01
2019-01-20T17:24:18.353Z,0.96
2019-01-20T17:27:07.712Z,0.90
2019-01-20T17:29:57.779Z,0.85
2019-01-20T17:32:47.746Z,0.81
2019-01-20T17:35:37.101Z,0.78
2019-01-20T17:38:28.623Z,0.73
2019-01-20T17:41:18.518Z,0.69
2019-01-20T17:44:08.626Z,0.67
2019-01-20T17:46:58.802Z,0.64
2019-01-20T17:49:49.040Z,0.59
2019-01-20T17:52:40.326Z,0.53
2019-01-20T17:55:30.497Z,0.50
2019-01-20T17:58:20.697Z,0.44
2019-01-20T18:01:11.076Z,0.44
2019-01-20T18:04:00.699Z,0.37
2019-01-20T18:06:50.742Z,0.32
2019-01-20T18:09:40.841Z,0.29
2019-01-20T18:12:30.939Z,0.27
2019-01-20T18:15:21.633Z,0.22
2019-01-20T18:18:11.583Z,0.17
2019-01-20T18:21:01.902Z,0.12
2019-01-20T18:23:52.520Z,0.09
2019-01-20T18:26:42.329Z,0.09
2019-01-20T18:29:32.234Z,0.06
2019-01-20T18:32:21.927Z,0.04
2019-01-20T18:35:12.397Z,0.00
2019-01-20T18:38:02.883Z,-0.07
2019-01-20T18:40:52.807Z,-0.17
2019-01-20T18:43:42.539Z,-0.21
2019-01-20T18:46:32.813Z,-0.27
2019-01-20T18:49:23.045Z,-0.29
2019-01-20T18:52:13.072Z,-0.35
2019-01-20T18:55:02.932Z,-0.40
2019-01-20T18:57:53.781Z,-0.45
2019-01-20T19:00:48.390Z,-0.47
2019-01-20T19:03:40.349Z,-0.48
2019-01-20T19:06:30.255Z,-0.50
2019-01-20T19:09:19.915Z,-0.56
2019-01-20T19:12:10.094Z,-0.55
2019-01-20T19:14:59.998Z,-0.59
2019-01-20T19:17:49.505Z,-0.61
2019-01-20T19:20:39.779Z,-0.62
2019-01-20T19:23:30.488Z,-0.66
2019-01-20T19:26:20.791Z,-0.72
2019-01-20T19:29:11.270Z,-0.78
2019-01-20T19:32:01.829Z,-0.75
2019-01-20T19:34:52.225Z,-0.76
2019-01-20T19:37:42.108Z,-0.80
2019-01-20T19:40:32.740Z,-0.84
2019-01-20T19:43:26.013Z,-0.86
2019-01-20T19:46:16.600Z,-0.86
2019-01-20T19:49:06.799Z,-0.88
2019-01-20T19:51:57.029Z,-0.88
2019-01-20T19:54:46.390Z,-0.90
2019-01-20T19:57:36.283Z,-0.92
2019-01-20T20:00:27.379Z,-0.94
2019-01-20T20:03:17.491Z,-0.97
2019-01-20T20:06:07.408Z,-0.99
2019-01-20T20:08:57.500Z,-1.00
2019-01-20T20:11:47.089Z,-1.00
2019-01-20T20:14:36.953Z,-1.04
2019-01-20T20:17:26.527Z,-1.06
2019-01-20T20:20:17.425Z,-1.09
2019-01-20T20:23:07.239Z,-1.13
2019-01-20T20:25:56.979Z,-1.15
2019-01-20T20:28:47.231Z,-1.18
2019-01-20T20:31:36.954Z,-1.21
2019-01-20T20:34:26.507Z,-1.24
2019-01-20T20:37:16.420Z,-1.27
2019-01-20T20:40:09.823Z,-1.31
2019-01-20T20:43:00.025Z,-1.36
2019-01-20T20:45:50.223Z,-1.38
2019-01-20T20:48:40.615Z,-1.39
2019-01-20T20:51:30.966Z,-1.42
2019-01-20T20:54:20.882Z,-1.49
2019-01-20T20:57:11.125Z,-1.51
2019-01-20T21:00:00.803Z,-1.50
2019-01-20T21:02:51.133Z,-1.54
2019-01-20T21:05:40.107Z,-1.53
2019-01-20T21:08:30.125Z,-1.57
2019-01-20T21:11:19.841Z,-1.58
2019-01-20T21:14:10.318Z,-1.57
2019-01-20T21:17:00.504Z,-1.56
2019-01-20T21:19:49.929Z,-1.57
2019-01-20T21:22:39.587Z,-1.61
2019-01-20T21:25:29.133Z,-1.60
2019-01-20T21:28:19.018Z,-1.63
2019-01-20T21:31:09.233Z,-1.63
2019-01-20T21:33:59.228Z,-1.65
2019-01-20T21:36:49.691Z,-1.69
2019-01-20T21:39:39.576Z,-1.71
2019-01-20T21:42:29.132Z,-1.71
2019-01-20T21:45:19.307Z,-1.75
2019-01-20T21:48:08.881Z,-1.76
2019-01-20T21:50:59.109Z,-1.80
2019-01-20T21:53:49.239Z,-1.82
2019-01-20T21:56:39.046Z,-1.85
2019-01-20T21:59:29.191Z,-1.87
2019-01-20T22:02:20.301Z,-1.91
2019-01-20T22:05:11.321Z,-1.96
2019-01-20T22:08:01.308Z,-1.99
2019-01-20T22:10:51.510Z,-2.02
2019-01-20T22:13:41.560Z,-2.04
2019-01-20T22:16:30.743Z,-2.07
2019-01-20T22:19:20.301Z,-2.09
2019-01-20T22:22:10.590Z,-2.11
2019-01-20T22:25:00.781Z,-2.10
2019-01-20T22:27:51.469Z,-2.10
2019-01-20T22:30:41.287Z,-2.14
2019-01-20T22:33:31.171Z,-2.16
2019-01-20T22:36:21.108Z,-2.18
2019-01-20T22:39:11.233Z,-2.18
2019-01-20T22:42:01.414Z,-2.15
2019-01-20T22:44:51.514Z,-2.14
2019-01-20T22:47:41.139Z,-2.12
2019-01-20T22:50:31.708Z,-2.10
2019-01-20T22:53:21.715Z,-2.10
2019-01-20T22:56:11.217Z,-2.12
2019-01-20T22:59:00.875Z,-2.13
2019-01-20T23:01:50.861Z,-2.15
2019-01-20T23:04:41.361Z,-2.18
2019-01-20T23:07:31.382Z,-2.19
2019-01-20T23:10:21.276Z,-2.20
2019-01-20T23:13:11.398Z,-2.26
2019-01-20T23:16:01.635Z,-2.30
2019-01-20T23:18:51.251Z,-2.33
2019-01-20T23:21:41.113Z,-2.39
2019-01-20T23:24:31.483Z,-2.42
2019-01-20T23:27:21.466Z,-2.45
2019-01-20T23:30:13.076Z,-2.51
2019-01-20T23:33:03.159Z,-2.55
2019-01-20T23:35:54.215Z,-2.56
2019-01-20T23:38:44.003Z,-2.58
2019-01-20T23:41:34.119Z,-2.62
2019-01-20T23:44:24.262Z,-2.64
2019-01-20T23:47:15.308Z,-2.68
2019-01-20T23:50:07.659Z,-2.69
2019-01-20T23:52:57.711Z,-2.73
2019-01-20T23:55:48.619Z,-2.73
2019-01-20T23:58:39.793Z,-2.76
